sensor_id;sensor_type;location;lat;lon;timestamp;pressure;altitude;pressure_sealevel;temperature;humidity
49297;BME280;35163;48.878;18.040;2023-03-26T00:01:18;97744.69;;;11.02;53.66
49297;BME280;35163;48.878;18.040;2023-03-26T00:03:47;97742.09;;;11.02;53.27
49297;BME280;35163;48.878;18.040;2023-03-26T00:06:24;97738.44;;;11.06;52.79
49297;BME280;35163;48.878;18.040;2023-03-26T00:08:55;97743.13;;;10.98;52.17
49297;BME280;35163;48.878;18.040;2023-03-26T00:11:24;97738.81;;;10.98;52.60
49297;BME280;35163;48.878;18.040;2023-03-26T00:13:51;97733.41;;;11.03;53.08
49297;BME280;35163;48.878;18.040;2023-03-26T00:16:25;97737.56;;;11.07;52.90
49297;BME280;35163;48.878;18.040;2023-03-26T00:18:51;97736.78;;;11.05;53.06
49297;BME280;35163;48.878;18.040;2023-03-26T00:21:22;97729.88;;;11.05;53.49
49297;BME280;35163;48.878;18.040;2023-03-26T00:24:08;97737.69;;;11.04;53.52
49297;BME280;35163;48.878;18.040;2023-03-26T00:26:37;97726.56;;;11.02;53.81
49297;BME280;35163;48.878;18.040;2023-03-26T00:29:04;97728.88;;;11.08;53.72
49297;BME280;35163;48.878;18.040;2023-03-26T00:31:32;97724.47;;;11.10;53.21
49297;BME280;35163;48.878;18.040;2023-03-26T00:34:03;97727.06;;;11.10;53.66
49297;BME280;35163;48.878;18.040;2023-03-26T00:36:31;97722.94;;;11.06;53.82
49297;BME280;35163;48.878;18.040;2023-03-26T00:39:01;97723.56;;;11.11;53.25
49297;BME280;35163;48.878;18.040;2023-03-26T00:41:30;97725.50;;;11.06;52.70
49297;BME280;35163;48.878;18.040;2023-03-26T00:43:58;97715.31;;;11.03;52.92
49297;BME280;35163;48.878;18.040;2023-03-26T00:46:28;97714.81;;;10.94;54.23
49297;BME280;35163;48.878;18.040;2023-03-26T00:48:55;97716.69;;;10.91;54.71
49297;BME280;35163;48.878;18.040;2023-03-26T00:51:26;97714.88;;;10.93;54.87
49297;BME280;35163;48.878;18.040;2023-03-26T00:53:53;97708.88;;;10.92;54.69
49297;BME280;35163;48.878;18.040;2023-03-26T00:56:24;97715.03;;;10.90;55.32
49297;BME280;35163;48.878;18.040;2023-03-26T00:58:50;97708.09;;;10.90;54.61
49297;BME280;35163;48.878;18.040;2023-03-26T01:01:25;97702.28;;;10.85;54.74
49297;BME280;35163;48.878;18.040;2023-03-26T01:03:54;97694.59;;;10.84;55.71
49297;BME280;35163;48.878;18.040;2023-03-26T01:06:36;97698.03;;;10.84;54.58
49297;BME280;35163;48.878;18.040;2023-03-26T01:09:15;97683.56;;;10.80;54.61
49297;BME280;35163;48.878;18.040;2023-03-26T01:11:45;97700.88;;;10.78;54.46
49297;BME280;35163;48.878;18.040;2023-03-26T01:14:19;97700.25;;;10.73;54.75
49297;BME280;35163;48.878;18.040;2023-03-26T01:16:52;97703.22;;;10.63;54.75
49297;BME280;35163;48.878;18.040;2023-03-26T01:19:47;97697.03;;;10.67;55.01
49297;BME280;35163;48.878;18.040;2023-03-26T01:22:22;97707.44;;;10.66;55.71
49297;BME280;35163;48.878;18.040;2023-03-26T01:24:52;97703.44;;;10.59;55.46
49297;BME280;35163;48.878;18.040;2023-03-26T01:27:40;97710.25;;;10.60;55.89
49297;BME280;35163;48.878;18.040;2023-03-26T01:30:47;97709.75;;;10.51;55.76
49297;BME280;35163;48.878;18.040;2023-03-26T01:33:27;97714.94;;;10.51;56.51
49297;BME280;35163;48.878;18.040;2023-03-26T01:36:23;97707.47;;;10.43;56.51
49297;BME280;35163;48.878;18.040;2023-03-26T01:41:57;97700.50;;;10.45;57.03
49297;BME280;35163;48.878;18.040;2023-03-26T01:44:55;97697.28;;;10.40;56.56
49297;BME280;35163;48.878;18.040;2023-03-26T01:47:25;97699.16;;;10.37;56.77
49297;BME280;35163;48.878;18.040;2023-03-26T01:49:52;97698.28;;;10.36;57.41
49297;BME280;35163;48.878;18.040;2023-03-26T01:52:21;97696.69;;;10.33;57.59
49297;BME280;35163;48.878;18.040;2023-03-26T01:54:54;97697.66;;;10.31;56.84
49297;BME280;35163;48.878;18.040;2023-03-26T02:00:25;97692.88;;;10.21;57.36
49297;BME280;35163;48.878;18.040;2023-03-26T02:08:27;97699.13;;;10.16;57.58
49297;BME280;35163;48.878;18.040;2023-03-26T02:11:04;97696.22;;;10.24;57.72
49297;BME280;35163;48.878;18.040;2023-03-26T02:13:43;97698.88;;;10.22;57.63
49297;BME280;35163;48.878;18.040;2023-03-26T02:16:13;97681.69;;;10.21;57.74
49297;BME280;35163;48.878;18.040;2023-03-26T02:18:43;97677.31;;;10.23;57.63
49297;BME280;35163;48.878;18.040;2023-03-26T02:21:18;97664.91;;;10.31;57.12
49297;BME280;35163;48.878;18.040;2023-03-26T02:23:50;97674.25;;;10.34;56.00
49297;BME280;35163;48.878;18.040;2023-03-26T02:26:26;97668.06;;;10.38;56.04
49297;BME280;35163;48.878;18.040;2023-03-26T02:28:52;97677.56;;;10.38;55.72
49297;BME280;35163;48.878;18.040;2023-03-26T02:31:19;97674.31;;;10.32;56.02
49297;BME280;35163;48.878;18.040;2023-03-26T02:33:47;97677.25;;;10.25;56.53
49297;BME280;35163;48.878;18.040;2023-03-26T02:36:17;97673.88;;;10.23;56.83
49297;BME280;35163;48.878;18.040;2023-03-26T02:38:49;97670.66;;;10.17;57.08
49297;BME280;35163;48.878;18.040;2023-03-26T02:41:17;97675.81;;;10.17;56.80
49297;BME280;35163;48.878;18.040;2023-03-26T02:43:43;97664.69;;;10.15;57.58
49297;BME280;35163;48.878;18.040;2023-03-26T02:46:10;97672.72;;;10.09;57.42
49297;BME280;35163;48.878;18.040;2023-03-26T02:48:37;97677.03;;;10.08;57.87
49297;BME280;35163;48.878;18.040;2023-03-26T02:51:04;97666.97;;;10.02;58.16
49297;BME280;35163;48.878;18.040;2023-03-26T02:53:32;97669.69;;;9.99;58.23
49297;BME280;35163;48.878;18.040;2023-03-26T02:55:59;97679.34;;;9.94;58.98
49297;BME280;35163;48.878;18.040;2023-03-26T02:58:26;97677.19;;;9.83;58.90
49297;BME280;35163;48.878;18.040;2023-03-26T03:00:55;97676.47;;;9.79;59.11
49297;BME280;35163;48.878;18.040;2023-03-26T03:03:26;97673.31;;;9.72;59.14
49297;BME280;35163;48.878;18.040;2023-03-26T03:05:53;97678.78;;;9.65;59.77
49297;BME280;35163;48.878;18.040;2023-03-26T03:08:22;97683.09;;;9.64;59.25
49297;BME280;35163;48.878;18.040;2023-03-26T03:10:56;97678.78;;;9.65;59.33
49297;BME280;35163;48.878;18.040;2023-03-26T03:13:23;97675.56;;;9.59;59.73
49297;BME280;35163;48.878;18.040;2023-03-26T03:15:50;97681.66;;;9.57;59.51
49297;BME280;35163;48.878;18.040;2023-03-26T03:18:17;97679.31;;;9.51;59.80
49297;BME280;35163;48.878;18.040;2023-03-26T03:20:45;97673.63;;;9.42;59.78
49297;BME280;35163;48.878;18.040;2023-03-26T03:23:13;97684.06;;;9.39;60.05
49297;BME280;35163;48.878;18.040;2023-03-26T03:25:40;97686.81;;;9.34;60.35
49297;BME280;35163;48.878;18.040;2023-03-26T03:28:07;97689.69;;;9.27;60.19
49297;BME280;35163;48.878;18.040;2023-03-26T03:30:34;97690.63;;;9.24;60.76
49297;BME280;35163;48.878;18.040;2023-03-26T03:33:01;97684.72;;;9.22;60.41
49297;BME280;35163;48.878;18.040;2023-03-26T03:35:28;97691.53;;;9.23;60.37
49297;BME280;35163;48.878;18.040;2023-03-26T03:37:56;97685.78;;;9.16;60.81
49297;BME280;35163;48.878;18.040;2023-03-26T03:40:23;97686.66;;;9.15;61.20
49297;BME280;35163;48.878;18.040;2023-03-26T03:42:50;97684.97;;;9.14;60.05
49297;BME280;35163;48.878;18.040;2023-03-26T03:45:17;97670.69;;;9.05;60.55
49297;BME280;35163;48.878;18.040;2023-03-26T03:47:43;97674.25;;;9.03;60.93
49297;BME280;35163;48.878;18.040;2023-03-26T03:50:10;97678.66;;;8.99;61.46
49297;BME280;35163;48.878;18.040;2023-03-26T03:52:37;97678.00;;;8.94;61.31
49297;BME280;35163;48.878;18.040;2023-03-26T03:55:03;97678.22;;;8.87;61.61
49297;BME280;35163;48.878;18.040;2023-03-26T03:57:30;97686.56;;;8.94;61.52
49297;BME280;35163;48.878;18.040;2023-03-26T04:00:00;97684.56;;;9.03;60.75
49297;BME280;35163;48.878;18.040;2023-03-26T04:02:32;97688.88;;;9.02;61.70
49297;BME280;35163;48.878;18.040;2023-03-26T04:05:01;97685.56;;;8.98;61.84
49297;BME280;35163;48.878;18.040;2023-03-26T04:07:29;97686.47;;;8.97;61.84
49297;BME280;35163;48.878;18.040;2023-03-26T04:09:58;97695.19;;;8.93;62.04
49297;BME280;35163;48.878;18.040;2023-03-26T04:12:27;97691.72;;;8.94;61.94
49297;BME280;35163;48.878;18.040;2023-03-26T04:14:54;97690.22;;;8.89;62.38
49297;BME280;35163;48.878;18.040;2023-03-26T04:17:22;97694.56;;;8.86;61.94
49297;BME280;35163;48.878;18.040;2023-03-26T04:19:49;97695.44;;;8.87;62.14
49297;BME280;35163;48.878;18.040;2023-03-26T04:22:18;97682.66;;;8.84;62.03
49297;BME280;35163;48.878;18.040;2023-03-26T04:24:45;97696.47;;;8.81;62.48
49297;BME280;35163;48.878;18.040;2023-03-26T04:27:17;97681.50;;;8.67;62.39
49297;BME280;35163;48.878;18.040;2023-03-26T04:29:47;97690.81;;;8.71;62.54
49297;BME280;35163;48.878;18.040;2023-03-26T04:32:21;97692.66;;;8.68;63.28
49297;BME280;35163;48.878;18.040;2023-03-26T04:34:52;97696.19;;;8.65;63.51
49297;BME280;35163;48.878;18.040;2023-03-26T04:39:53;97693.75;;;8.60;63.38
49297;BME280;35163;48.878;18.040;2023-03-26T04:42:20;97688.84;;;8.53;63.73
49297;BME280;35163;48.878;18.040;2023-03-26T04:44:47;97690.63;;;8.50;63.96
49297;BME280;35163;48.878;18.040;2023-03-26T04:47:17;97685.72;;;8.44;64.12
49297;BME280;35163;48.878;18.040;2023-03-26T04:49:45;97682.44;;;8.39;64.09
49297;BME280;35163;48.878;18.040;2023-03-26T04:52:13;97677.34;;;8.37;64.75
49297;BME280;35163;48.878;18.040;2023-03-26T04:54:42;97686.69;;;8.40;64.60
49297;BME280;35163;48.878;18.040;2023-03-26T04:57:18;97680.72;;;8.39;64.49
49297;BME280;35163;48.878;18.040;2023-03-26T04:59:46;97687.25;;;8.48;64.50
49297;BME280;35163;48.878;18.040;2023-03-26T05:02:13;97691.66;;;8.46;64.91
49297;BME280;35163;48.878;18.040;2023-03-26T05:04:40;97692.53;;;8.45;64.75
49297;BME280;35163;48.878;18.040;2023-03-26T05:07:10;97689.22;;;8.42;65.17
49297;BME280;35163;48.878;18.040;2023-03-26T05:09:38;97674.72;;;8.39;64.62
49297;BME280;35163;48.878;18.040;2023-03-26T05:12:04;97683.31;;;8.39;65.33
49297;BME280;35163;48.878;18.040;2023-03-26T05:14:31;97678.91;;;8.42;64.94
49297;BME280;35163;48.878;18.040;2023-03-26T05:17:01;97684.22;;;8.37;64.91
49297;BME280;35163;48.878;18.040;2023-03-26T05:19:31;97688.59;;;8.35;65.08
49297;BME280;35163;48.878;18.040;2023-03-26T05:21:58;97675.66;;;8.36;65.03
49297;BME280;35163;48.878;18.040;2023-03-26T05:24:24;97676.63;;;8.34;64.78
49297;BME280;35163;48.878;18.040;2023-03-26T05:26:52;97679.06;;;8.37;64.67
49297;BME280;35163;48.878;18.040;2023-03-26T05:29:21;97678.84;;;8.43;64.48
49297;BME280;35163;48.878;18.040;2023-03-26T05:31:49;97673.81;;;8.40;65.01
49297;BME280;35163;48.878;18.040;2023-03-26T05:34:16;97676.22;;;8.45;64.98
49297;BME280;35163;48.878;18.040;2023-03-26T05:36:43;97676.75;;;8.55;64.95
49297;BME280;35163;48.878;18.040;2023-03-26T05:39:09;97679.31;;;8.56;65.10
49297;BME280;35163;48.878;18.040;2023-03-26T05:41:38;97677.53;;;8.58;65.22
49297;BME280;35163;48.878;18.040;2023-03-26T05:44:04;97678.91;;;8.67;64.63
49297;BME280;35163;48.878;18.040;2023-03-26T05:46:31;97671.81;;;8.74;64.20
49297;BME280;35163;48.878;18.040;2023-03-26T05:48:58;97674.25;;;8.79;64.56
49297;BME280;35163;48.878;18.040;2023-03-26T05:51:24;97671.44;;;8.85;64.34
49297;BME280;35163;48.878;18.040;2023-03-26T05:53:51;97677.13;;;8.93;64.37
49297;BME280;35163;48.878;18.040;2023-03-26T05:56:18;97667.13;;;9.09;64.10
49297;BME280;35163;48.878;18.040;2023-03-26T05:58:44;97672.94;;;9.15;63.37
49297;BME280;35163;48.878;18.040;2023-03-26T06:01:13;97671.19;;;9.15;63.63
49297;BME280;35163;48.878;18.040;2023-03-26T06:03:44;97667.00;;;9.13;64.00
49297;BME280;35163;48.878;18.040;2023-03-26T06:06:14;97666.13;;;9.12;63.68
49297;BME280;35163;48.878;18.040;2023-03-26T06:08:45;97669.25;;;9.20;64.06
49297;BME280;35163;48.878;18.040;2023-03-26T06:11:28;97673.44;;;9.24;63.42
49297;BME280;35163;48.878;18.040;2023-03-26T06:13:55;97674.34;;;9.23;63.04
49297;BME280;35163;48.878;18.040;2023-03-26T06:16:21;97681.22;;;9.23;63.34
49297;BME280;35163;48.878;18.040;2023-03-26T06:18:53;97680.16;;;9.29;64.05
49297;BME280;35163;48.878;18.040;2023-03-26T06:21:22;97679.13;;;9.33;62.92
49297;BME280;35163;48.878;18.040;2023-03-26T06:23:50;97687.66;;;9.35;62.48
49297;BME280;35163;48.878;18.040;2023-03-26T06:26:20;97687.28;;;9.44;62.42
49297;BME280;35163;48.878;18.040;2023-03-26T06:28:48;97682.78;;;9.50;61.96
49297;BME280;35163;48.878;18.040;2023-03-26T06:31:15;97684.38;;;9.54;62.20
49297;BME280;35163;48.878;18.040;2023-03-26T06:33:42;97682.38;;;9.60;61.97
49297;BME280;35163;48.878;18.040;2023-03-26T06:36:09;97693.31;;;9.67;61.11
49297;BME280;35163;48.878;18.040;2023-03-26T06:38:36;97695.16;;;9.86;61.04
49297;BME280;35163;48.878;18.040;2023-03-26T06:41:04;97689.09;;;9.87;61.11
49297;BME280;35163;48.878;18.040;2023-03-26T06:43:31;97688.13;;;9.90;60.71
49297;BME280;35163;48.878;18.040;2023-03-26T06:46:02;97691.50;;;9.92;60.43
49297;BME280;35163;48.878;18.040;2023-03-26T06:48:29;97700.78;;;9.96;60.62
49297;BME280;35163;48.878;18.040;2023-03-26T06:50:56;97691.28;;;9.96;61.10
49297;BME280;35163;48.878;18.040;2023-03-26T06:53:23;97691.22;;;9.98;61.27
49297;BME280;35163;48.878;18.040;2023-03-26T06:55:51;97703.13;;;10.02;61.57
49297;BME280;35163;48.878;18.040;2023-03-26T06:58:19;97701.38;;;10.03;61.37
49297;BME280;35163;48.878;18.040;2023-03-26T07:00:46;97702.88;;;10.08;61.47
49297;BME280;35163;48.878;18.040;2023-03-26T07:03:12;97702.56;;;10.16;61.21
49297;BME280;35163;48.878;18.040;2023-03-26T07:05:39;97703.09;;;10.25;60.99
49297;BME280;35163;48.878;18.040;2023-03-26T07:08:06;97704.75;;;10.26;60.91
49297;BME280;35163;48.878;18.040;2023-03-26T07:10:33;97701.44;;;10.22;61.20
49297;BME280;35163;48.878;18.040;2023-03-26T07:12:59;97708.25;;;10.25;61.25
49297;BME280;35163;48.878;18.040;2023-03-26T07:15:27;97698.50;;;10.31;62.27
49297;BME280;35163;48.878;18.040;2023-03-26T07:17:54;97700.03;;;10.36;62.49
49297;BME280;35163;48.878;18.040;2023-03-26T07:20:20;97694.56;;;10.43;61.89
49297;BME280;35163;48.878;18.040;2023-03-26T07:22:48;97693.72;;;10.43;61.83
49297;BME280;35163;48.878;18.040;2023-03-26T07:25:16;97698.63;;;10.49;62.49
49297;BME280;35163;48.878;18.040;2023-03-26T07:27:51;97697.41;;;10.58;61.82
49297;BME280;35163;48.878;18.040;2023-03-26T07:30:39;97692.88;;;10.63;62.06
49297;BME280;35163;48.878;18.040;2023-03-26T07:33:14;97690.72;;;10.73;62.16
49297;BME280;35163;48.878;18.040;2023-03-26T07:38:53;97684.34;;;11.01;60.97
49297;BME280;35163;48.878;18.040;2023-03-26T07:46:49;97676.59;;;11.21;59.29
49297;BME280;35163;48.878;18.040;2023-03-26T07:49:19;97679.94;;;11.23;59.01
49297;BME280;35163;48.878;18.040;2023-03-26T07:51:47;97678.38;;;11.38;58.57
49297;BME280;35163;48.878;18.040;2023-03-26T07:54:14;97673.28;;;11.36;57.35
49297;BME280;35163;48.878;18.040;2023-03-26T07:57:01;97674.88;;;11.39;57.23
49297;BME280;35163;48.878;18.040;2023-03-26T07:59:49;97671.88;;;11.48;57.04
49297;BME280;35163;48.878;18.040;2023-03-26T08:02:33;97681.06;;;11.54;57.50
49297;BME280;35163;48.878;18.040;2023-03-26T08:05:11;97666.94;;;11.61;58.65
49297;BME280;35163;48.878;18.040;2023-03-26T08:10:53;97669.28;;;11.66;58.58
49297;BME280;35163;48.878;18.040;2023-03-26T08:17:13;97675.63;;;11.78;56.13
49297;BME280;35163;48.878;18.040;2023-03-26T08:22:33;97672.53;;;11.89;55.17
49297;BME280;35163;48.878;18.040;2023-03-26T08:30:14;97668.28;;;12.06;53.96
49297;BME280;35163;48.878;18.040;2023-03-26T08:32:49;97669.75;;;12.11;52.92
49297;BME280;35163;48.878;18.040;2023-03-26T08:35:22;97667.00;;;12.14;53.16
49297;BME280;35163;48.878;18.040;2023-03-26T08:37:49;97673.13;;;12.13;53.13
49297;BME280;35163;48.878;18.040;2023-03-26T08:49:06;97666.00;;;12.35;53.29
49297;BME280;35163;48.878;18.040;2023-03-26T09:02:29;97648.78;;;12.34;52.18
49297;BME280;35163;48.878;18.040;2023-03-26T09:08:04;97650.16;;;12.23;53.20
49297;BME280;35163;48.878;18.040;2023-03-26T09:10:49;97642.38;;;12.23;53.14
49297;BME280;35163;48.878;18.040;2023-03-26T09:19:10;97636.97;;;12.28;52.42
49297;BME280;35163;48.878;18.040;2023-03-26T09:27:32;97638.66;;;12.63;53.70
49297;BME280;35163;48.878;18.040;2023-03-26T09:38:31;97625.56;;;13.15;49.28
49297;BME280;35163;48.878;18.040;2023-03-26T09:41:15;97616.34;;;13.25;49.32
49297;BME280;35163;48.878;18.040;2023-03-26T09:52:43;97603.38;;;13.72;48.34
49297;BME280;35163;48.878;18.040;2023-03-26T09:55:32;97600.44;;;13.78;46.37
49297;BME280;35163;48.878;18.040;2023-03-26T10:04:24;97595.19;;;13.64;46.36
49297;BME280;35163;48.878;18.040;2023-03-26T10:14:51;97579.56;;;13.80;47.44
49297;BME280;35163;48.878;18.040;2023-03-26T10:28:43;97550.56;;;14.17;44.56
49297;BME280;35163;48.878;18.040;2023-03-26T10:34:16;97540.72;;;14.37;44.29
49297;BME280;35163;48.878;18.040;2023-03-26T10:37:39;97538.31;;;14.33;43.93
49297;BME280;35163;48.878;18.040;2023-03-26T10:43:13;97538.69;;;14.42;44.42
49297;BME280;35163;48.878;18.040;2023-03-26T10:52:05;97520.97;;;14.62;42.72
49297;BME280;35163;48.878;18.040;2023-03-26T10:57:05;97525.69;;;14.84;43.64
49297;BME280;35163;48.878;18.040;2023-03-26T10:59:36;97517.78;;;14.86;42.99
49297;BME280;35163;48.878;18.040;2023-03-26T11:08:01;97504.00;;;14.98;43.19
49297;BME280;35163;48.878;18.040;2023-03-26T11:10:45;97498.81;;;14.98;42.45
49297;BME280;35163;48.878;18.040;2023-03-26T11:16:04;97486.31;;;15.03;42.47
49297;BME280;35163;48.878;18.040;2023-03-26T11:18:57;97473.22;;;15.18;42.53
49297;BME280;35163;48.878;18.040;2023-03-26T11:24:27;97469.63;;;15.34;41.66
49297;BME280;35163;48.878;18.040;2023-03-26T11:27:10;97470.97;;;15.39;41.60
49297;BME280;35163;48.878;18.040;2023-03-26T11:32:27;97460.38;;;15.55;42.92
49297;BME280;35163;48.878;18.040;2023-03-26T11:35:05;97449.22;;;15.53;41.59
49297;BME280;35163;48.878;18.040;2023-03-26T11:37:38;97447.34;;;15.55;42.72
49297;BME280;35163;48.878;18.040;2023-03-26T11:40:17;97439.13;;;15.62;42.11
49297;BME280;35163;48.878;18.040;2023-03-26T11:42:50;97442.25;;;15.67;42.21
49297;BME280;35163;48.878;18.040;2023-03-26T11:45:24;97440.16;;;15.72;40.77
49297;BME280;35163;48.878;18.040;2023-03-26T11:48:02;97432.88;;;15.77;41.19
49297;BME280;35163;48.878;18.040;2023-03-26T11:50:35;97431.81;;;15.80;40.55
49297;BME280;35163;48.878;18.040;2023-03-26T11:53:14;97436.19;;;15.79;40.08
49297;BME280;35163;48.878;18.040;2023-03-26T11:58:28;97420.06;;;15.74;40.61
49297;BME280;35163;48.878;18.040;2023-03-26T12:00:57;97416.72;;;15.72;40.38
49297;BME280;35163;48.878;18.040;2023-03-26T12:03:25;97419.09;;;15.75;40.63
49297;BME280;35163;48.878;18.040;2023-03-26T12:05:58;97407.44;;;15.81;41.19
49297;BME280;35163;48.878;18.040;2023-03-26T12:08:38;97402.09;;;15.83;39.65
49297;BME280;35163;48.878;18.040;2023-03-26T12:11:08;97406.66;;;15.92;39.89
49297;BME280;35163;48.878;18.040;2023-03-26T12:13:39;97397.06;;;15.93;39.77
49297;BME280;35163;48.878;18.040;2023-03-26T12:16:17;97382.97;;;15.95;40.00
49297;BME280;35163;48.878;18.040;2023-03-26T12:18:46;97396.97;;;15.94;39.77
49297;BME280;35163;48.878;18.040;2023-03-26T12:21:22;97388.72;;;16.00;39.92
49297;BME280;35163;48.878;18.040;2023-03-26T12:23:50;97377.38;;;16.01;39.50
49297;BME280;35163;48.878;18.040;2023-03-26T12:26:34;97371.72;;;16.08;39.47
49297;BME280;35163;48.878;18.040;2023-03-26T12:29:12;97366.00;;;16.02;40.49
49297;BME280;35163;48.878;18.040;2023-03-26T12:34:33;97347.75;;;16.02;40.06
49297;BME280;35163;48.878;18.040;2023-03-26T12:37:02;97352.16;;;16.02;39.20
49297;BME280;35163;48.878;18.040;2023-03-26T12:39:41;97348.72;;;16.01;39.96
49297;BME280;35163;48.878;18.040;2023-03-26T12:42:30;97338.47;;;15.98;38.83
49297;BME280;35163;48.878;18.040;2023-03-26T12:45:22;97334.00;;;16.00;38.73
49297;BME280;35163;48.878;18.040;2023-03-26T12:47:51;97337.31;;;16.02;40.03
49297;BME280;35163;48.878;18.040;2023-03-26T12:50:35;97330.00;;;16.08;39.16
49297;BME280;35163;48.878;18.040;2023-03-26T13:01:43;97312.22;;;16.01;38.69
49297;BME280;35163;48.878;18.040;2023-03-26T13:04:42;97321.03;;;16.12;38.65
49297;BME280;35163;48.878;18.040;2023-03-26T13:19:43;97297.75;;;16.33;38.64
49297;BME280;35163;48.878;18.040;2023-03-26T13:22:31;97293.63;;;16.31;36.55
49297;BME280;35163;48.878;18.040;2023-03-26T13:25:26;97289.41;;;16.41;37.58
49297;BME280;35163;48.878;18.040;2023-03-26T13:31:03;97284.41;;;16.38;37.56
49297;BME280;35163;48.878;18.040;2023-03-26T13:36:35;97269.34;;;16.42;37.49
49297;BME280;35163;48.878;18.040;2023-03-26T13:42:25;97264.69;;;16.34;36.14
49297;BME280;35163;48.878;18.040;2023-03-26T13:47:49;97269.81;;;16.35;37.33
49297;BME280;35163;48.878;18.040;2023-03-26T13:50:29;97269.31;;;16.30;38.51
49297;BME280;35163;48.878;18.040;2023-03-26T13:53:12;97266.94;;;16.27;38.38
49297;BME280;35163;48.878;18.040;2023-03-26T13:55:47;97260.88;;;16.26;38.54
49297;BME280;35163;48.878;18.040;2023-03-26T13:58:20;97252.13;;;16.27;38.42
49297;BME280;35163;48.878;18.040;2023-03-26T14:06:36;97252.25;;;16.26;38.22
49297;BME280;35163;48.878;18.040;2023-03-26T14:09:18;97241.81;;;16.26;37.57
49297;BME280;35163;48.878;18.040;2023-03-26T14:14:54;97236.31;;;16.18;37.14
49297;BME280;35163;48.878;18.040;2023-03-26T14:17:27;97227.16;;;16.12;37.41
49297;BME280;35163;48.878;18.040;2023-03-26T14:20:22;97225.88;;;16.18;36.96
49297;BME280;35163;48.878;18.040;2023-03-26T14:31:38;97207.91;;;16.26;35.88
49297;BME280;35163;48.878;18.040;2023-03-26T14:37:41;97196.63;;;16.25;35.79
49297;BME280;35163;48.878;18.040;2023-03-26T14:40:26;97195.19;;;16.21;35.82
49297;BME280;35163;48.878;18.040;2023-03-26T14:45:53;97189.38;;;16.18;36.14
49297;BME280;35163;48.878;18.040;2023-03-26T14:48:48;97185.22;;;16.15;36.48
49297;BME280;35163;48.878;18.040;2023-03-26T14:54:23;97169.31;;;16.07;36.44
49297;BME280;35163;48.878;18.040;2023-03-26T15:00:22;97155.38;;;15.95;37.14
49297;BME280;35163;48.878;18.040;2023-03-26T15:16:58;97150.44;;;15.67;38.56
49297;BME280;35163;48.878;18.040;2023-03-26T15:22:37;97136.19;;;15.60;38.94
49297;BME280;35163;48.878;18.040;2023-03-26T15:50:52;97117.88;;;15.24;40.21
49297;BME280;35163;48.878;18.040;2023-03-26T16:02:48;97095.03;;;15.16;40.00
49297;BME280;35163;48.878;18.040;2023-03-26T16:08:27;97094.94;;;15.04;39.71
49297;BME280;35163;48.878;18.040;2023-03-26T16:10:57;97100.69;;;14.97;40.11
49297;BME280;35163;48.878;18.040;2023-03-26T16:21:44;97108.50;;;14.84;41.64
49297;BME280;35163;48.878;18.040;2023-03-26T16:24:22;97096.47;;;14.82;42.19
49297;BME280;35163;48.878;18.040;2023-03-26T16:29:28;97079.56;;;14.75;43.72
49297;BME280;35163;48.878;18.040;2023-03-26T16:32:33;97074.47;;;14.74;43.57
49297;BME280;35163;48.878;18.040;2023-03-26T16:35:03;97082.94;;;14.64;45.05
49297;BME280;35163;48.878;18.040;2023-03-26T16:38:04;97103.97;;;14.61;46.31
49297;BME280;35163;48.878;18.040;2023-03-26T16:40:32;97120.19;;;14.52;46.29
49297;BME280;35163;48.878;18.040;2023-03-26T16:43:11;97135.50;;;14.43;47.97
49297;BME280;35163;48.878;18.040;2023-03-26T16:46:40;97119.69;;;14.33;49.78
49297;BME280;35163;48.878;18.040;2023-03-26T16:48:56;97135.78;;;14.13;53.13
49297;BME280;35163;48.878;18.040;2023-03-26T16:54:44;97116.19;;;13.81;55.27
49297;BME280;35163;48.878;18.040;2023-03-26T16:57:24;97110.03;;;13.69;56.34
49297;BME280;35163;48.878;18.040;2023-03-26T17:00:33;97116.03;;;13.56;57.10
49297;BME280;35163;48.878;18.040;2023-03-26T17:19:58;97074.59;;;12.99;59.85
49297;BME280;35163;48.878;18.040;2023-03-26T17:22:44;97083.69;;;12.78;61.42
49297;BME280;35163;48.878;18.040;2023-03-26T17:30:30;97061.97;;;12.22;63.07
49297;BME280;35163;48.878;18.040;2023-03-26T17:35:43;97066.69;;;12.15;61.97
49297;BME280;35163;48.878;18.040;2023-03-26T17:40:54;97050.47;;;12.26;63.12
49297;BME280;35163;48.878;18.040;2023-03-26T17:51:45;97045.56;;;12.07;66.39
49297;BME280;35163;48.878;18.040;2023-03-26T17:54:18;97053.69;;;12.00;62.67
49297;BME280;35163;48.878;18.040;2023-03-26T17:56:47;97048.16;;;12.07;62.93
49297;BME280;35163;48.878;18.040;2023-03-26T17:59:18;97039.53;;;12.06;63.29
49297;BME280;35163;48.878;18.040;2023-03-26T18:01:54;97030.25;;;12.02;65.10
49297;BME280;35163;48.878;18.040;2023-03-26T18:04:29;97025.28;;;11.99;65.00
49297;BME280;35163;48.878;18.040;2023-03-26T18:15:47;97029.53;;;11.85;70.28
49297;BME280;35163;48.878;18.040;2023-03-26T18:21:00;97022.88;;;11.81;70.58
49297;BME280;35163;48.878;18.040;2023-03-26T18:23:38;97018.69;;;11.78;70.97
49297;BME280;35163;48.878;18.040;2023-03-26T18:26:13;97024.72;;;11.79;71.07
49297;BME280;35163;48.878;18.040;2023-03-26T18:28:42;97027.59;;;11.74;72.65
49297;BME280;35163;48.878;18.040;2023-03-26T18:31:19;97018.22;;;11.72;73.44
49297;BME280;35163;48.878;18.040;2023-03-26T18:33:49;97002.03;;;11.68;72.27
49297;BME280;35163;48.878;18.040;2023-03-26T18:36:24;97006.38;;;11.67;72.43
49297;BME280;35163;48.878;18.040;2023-03-26T18:38:55;97001.19;;;11.67;66.73
49297;BME280;35163;48.878;18.040;2023-03-26T18:41:29;96994.91;;;11.72;67.57
49297;BME280;35163;48.878;18.040;2023-03-26T18:44:01;97004.19;;;11.76;62.99
49297;BME280;35163;48.878;18.040;2023-03-26T18:46:28;97000.28;;;11.83;61.79
49297;BME280;35163;48.878;18.040;2023-03-26T18:48:55;97002.97;;;11.82;64.13
49297;BME280;35163;48.878;18.040;2023-03-26T18:51:25;97006.41;;;11.82;66.90